Time;durP1;ratioP1;P1;durP2;ratioP2;P2;SDS_P1;SDS_P2;PMS_P1;PMS_P2;Temp;Humidity;BMP_temperature;BMP_pressure;BME280_temperature;BME280_humidity;BME280_pressure;Samples;Min_cycle;Max_cycle;Signal;HPM_P1;HPM_P2
2021/04/11 00:00:19;;;;;;;4.28;2.88;;;3.80;89.40;;;;;;5032959;28;20110;-70
2021/04/11 00:02:45;;;;;;;3.22;2.38;;;3.80;89.50;;;;;;5033083;28;20036;-70
2021/04/11 00:05:12;;;;;;;3.90;2.83;;;3.80;89.50;;;;;;5035317;28;20021;-69
2021/04/11 00:07:38;;;;;;;4.10;3.00;;;3.80;89.50;;;;;;5036710;28;20056;-70
2021/04/11 00:10:13;;;;;;;3.95;2.88;;;3.80;89.60;;;;;;5036844;28;20021;-70
2021/04/11 00:12:38;;;;;;;4.63;2.80;;;3.80;89.70;;;;;;5036581;28;20044;-70
2021/04/11 00:15:07;;;;;;;4.30;3.15;;;3.80;89.70;;;;;;5036695;28;20017;-71
2021/04/11 00:17:33;;;;;;;5.05;3.45;;;3.80;89.90;;;;;;5036628;28;20017;-70
2021/04/11 00:19:58;;;;;;;3.78;2.78;;;3.70;89.90;;;;;;5036010;28;20022;-70
2021/04/11 00:22:24;;;;;;;4.22;3.15;;;3.70;90.00;;;;;;5035136;28;20032;-69
2021/04/11 00:24:49;;;;;;;4.25;3.10;;;3.70;90.00;;;;;;5036410;28;20069;-70
2021/04/11 00:27:15;;;;;;;3.65;2.10;;;3.70;90.00;;;;;;5036561;28;20090;-70
2021/04/11 00:29:41;;;;;;;2.88;2.20;;;3.70;90.00;;;;;;5036474;28;20018;-69
2021/04/11 00:32:07;;;;;;;5.75;3.67;;;3.70;90.00;;;;;;5036132;28;20033;-69
2021/04/11 00:34:33;;;;;;;5.57;3.80;;;3.70;90.10;;;;;;5035922;28;20480;-70
2021/04/11 00:36:59;;;;;;;4.05;3.00;;;3.70;90.20;;;;;;5036190;28;20033;-69
2021/04/11 00:39:25;;;;;;;4.03;2.88;;;3.70;90.10;;;;;;5036034;28;20032;-69
2021/04/11 00:41:56;;;;;;;3.78;3.08;;;3.70;90.20;;;;;;5036221;28;20101;-69
2021/04/11 00:44:22;;;;;;;4.88;3.50;;;3.60;90.20;;;;;;5036228;28;20377;-70
2021/04/11 00:46:56;;;;;;;6.07;3.85;;;3.60;90.20;;;;;;5036082;28;20017;-70
2021/04/11 00:49:32;;;;;;;5.20;3.72;;;3.60;90.20;;;;;;5035688;28;20023;-71
2021/04/11 00:51:58;;;;;;;4.35;3.00;;;3.60;90.30;;;;;;5035821;28;20128;-70
2021/04/11 00:54:25;;;;;;;3.20;2.67;;;3.60;90.30;;;;;;5035793;28;20076;-69
2021/04/11 00:56:51;;;;;;;2.97;2.22;;;3.60;90.40;;;;;;5035924;28;20470;-69
2021/04/11 00:59:18;;;;;;;6.80;4.70;;;3.60;90.40;;;;;;5036010;28;20084;-70
2021/04/11 01:01:45;;;;;;;4.60;3.08;;;3.60;90.40;;;;;;5035828;28;20022;-70
2021/04/11 01:04:16;;;;;;;4.80;3.50;;;3.50;90.30;;;;;;5035369;28;20489;-70
2021/04/11 01:06:51;;;;;;;5.07;3.05;;;3.50;90.40;;;;;;5035826;28;20449;-70
2021/04/11 01:09:34;;;;;;;4.38;3.15;;;3.50;90.40;;;;;;5035626;28;20028;-70
2021/04/11 01:12:01;;;;;;;4.18;2.80;;;3.50;90.40;;;;;;5035514;28;20109;-70
2021/04/11 01:14:30;;;;;;;4.90;3.42;;;3.40;90.50;;;;;;5035600;28;20021;-69
2021/04/11 01:16:56;;;;;;;4.45;3.33;;;3.40;90.50;;;;;;5034373;28;20198;-70
2021/04/11 01:19:29;;;;;;;5.40;3.78;;;3.40;90.50;;;;;;5035544;28;20026;-70
2021/04/11 01:22:13;;;;;;;5.55;3.50;;;3.40;90.50;;;;;;5035438;28;20028;-70
2021/04/11 01:24:49;;;;;;;3.90;2.58;;;3.40;90.50;;;;;;5035481;28;20026;-70
2021/04/11 01:27:21;;;;;;;4.38;2.97;;;3.40;90.60;;;;;;5035421;28;20446;-70
2021/04/11 01:29:48;;;;;;;3.78;2.55;;;3.40;90.50;;;;;;5035327;28;20071;-69
2021/04/11 01:32:14;;;;;;;3.33;2.55;;;3.40;90.50;;;;;;5033575;28;20085;-69
2021/04/11 01:34:41;;;;;;;4.55;3.10;;;3.40;90.50;;;;;;5035243;28;20390;-69
2021/04/11 01:37:08;;;;;;;4.15;3.05;;;3.40;90.50;;;;;;5035090;28;20021;-69
2021/04/11 01:39:37;;;;;;;3.05;2.20;;;3.40;90.50;;;;;;5034967;28;20390;-69
2021/04/11 01:42:04;;;;;;;5.07;3.67;;;3.40;90.50;;;;;;5035031;28;20029;-71
2021/04/11 01:44:34;;;;;;;6.80;3.95;;;3.40;90.50;;;;;;5035091;28;20105;-69
2021/04/11 01:47:00;;;;;;;5.07;2.97;;;3.40;90.50;;;;;;5034302;28;20118;-69
2021/04/11 01:49:26;;;;;;;6.80;4.10;;;3.40;90.50;;;;;;5034973;28;20532;-70
2021/04/11 01:52:26;;;;;;;4.97;3.45;;;3.40;90.60;;;;;;5034835;28;20076;-69
2021/04/11 01:54:52;;;;;;;4.28;2.92;;;3.40;90.60;;;;;;5024007;28;19940;-69
2021/04/11 01:57:22;;;;;;;5.18;3.58;;;3.40;90.70;;;;;;5034623;28;20017;-69
2021/04/11 01:59:48;;;;;;;6.43;4.55;;;3.40;90.70;;;;;;5034922;28;20033;-70
2021/04/11 02:02:17;;;;;;;5.03;3.10;;;3.40;90.70;;;;;;5034494;28;20565;-69
2021/04/11 02:04:44;;;;;;;4.97;3.25;;;3.40;90.70;;;;;;5034541;28;20539;-69
2021/04/11 02:07:11;;;;;;;4.97;3.03;;;3.40;90.70;;;;;;5034515;28;20021;-69
2021/04/11 02:09:46;;;;;;;3.92;2.40;;;3.40;90.70;;;;;;5033150;28;20070;-69
2021/04/11 02:12:13;;;;;;;4.80;3.08;;;3.40;90.70;;;;;;5034358;28;20513;-70
2021/04/11 02:14:41;;;;;;;4.22;3.22;;;3.40;90.70;;;;;;5034247;28;20037;-70
2021/04/11 02:17:07;;;;;;;5.82;3.97;;;3.50;90.70;;;;;;5034329;28;20022;-70
2021/04/11 02:19:33;;;;;;;5.18;3.58;;;3.40;90.80;;;;;;5034297;28;20057;-69
2021/04/11 02:22:06;;;;;;;7.47;3.65;;;3.40;90.80;;;;;;5034209;28;20453;-70
2021/04/11 02:24:36;;;;;;;3.92;2.92;;;3.40;90.80;;;;;;5034260;28;20101;-69
2021/04/11 02:27:01;;;;;;;6.45;4.80;;;3.40;90.90;;;;;;5034300;28;20018;-71
2021/04/11 02:29:28;;;;;;;5.80;4.40;;;3.50;90.90;;;;;;5033650;28;20024;-70
2021/04/11 02:31:54;;;;;;;5.60;4.25;;;3.50;90.90;;;;;;5033871;28;20025;-70
2021/04/11 02:34:26;;;;;;;6.03;3.67;;;3.40;90.90;;;;;;5033936;28;20389;-70
2021/04/11 02:37:24;;;;;;;5.32;3.35;;;3.40;90.90;;;;;;5032710;28;20029;-69
2021/04/11 02:39:53;;;;;;;5.40;4.05;;;3.50;90.90;;;;;;5029335;28;20037;-70
2021/04/11 02:42:23;;;;;;;4.82;2.97;;;3.50;91.00;;;;;;5033787;28;20019;-71
2021/04/11 02:44:50;;;;;;;5.53;3.42;;;3.50;91.00;;;;;;5033419;28;20044;-69
2021/04/11 02:47:16;;;;;;;4.78;3.17;;;3.50;91.00;;;;;;5033605;28;20033;-70
2021/04/11 02:49:43;;;;;;;4.20;2.58;;;3.50;91.00;;;;;;5033779;28;20048;-69
2021/04/11 02:52:22;;;;;;;3.67;2.60;;;3.50;91.00;;;;;;5033337;28;20122;-69
2021/04/11 02:54:48;;;;;;;3.38;2.40;;;3.60;91.00;;;;;;5033617;28;20029;-70
2021/04/11 02:57:14;;;;;;;2.45;2.22;;;3.60;91.00;;;;;;5032256;28;20020;-69
2021/04/11 02:59:40;;;;;;;3.47;2.15;;;3.60;90.90;;;;;;5033098;28;20101;-69
2021/04/11 03:02:06;;;;;;;4.40;3.40;;;3.60;91.00;;;;;;5033416;28;20099;-71
2021/04/11 03:04:31;;;;;;;3.90;2.78;;;3.60;91.00;;;;;;5033499;28;20489;-69
2021/04/11 03:07:01;;;;;;;3.95;2.72;;;3.60;91.10;;;;;;5033328;28;20025;-70
2021/04/11 03:09:37;;;;;;;4.80;2.92;;;3.60;91.20;;;;;;5033340;28;20030;-70
2021/04/11 03:12:04;;;;;;;4.85;3.15;;;3.60;91.20;;;;;;5033545;28;20054;-70
2021/04/11 03:14:34;;;;;;;3.45;2.60;;;3.60;91.30;;;;;;5032863;28;20490;-70
2021/04/11 03:17:03;;;;;;;2.85;2.45;;;3.60;91.30;;;;;;5033204;28;20032;-71
2021/04/11 03:19:32;;;;;;;3.83;2.70;;;3.60;91.30;;;;;;5033362;28;20482;-70
2021/04/11 03:21:58;;;;;;;3.55;2.28;;;3.60;91.30;;;;;;5033171;28;20025;-71
2021/04/11 03:24:24;;;;;;;2.53;2.17;;;3.60;91.30;;;;;;5033220;28;20108;-71
2021/04/11 03:27:05;;;;;;;3.22;2.30;;;3.60;91.30;;;;;;5032640;28;20025;-70
2021/04/11 03:29:39;;;;;;;4.93;2.47;;;3.60;91.40;;;;;;5031943;28;20433;-71
2021/04/11 03:32:22;;;;;;;2.83;2.17;;;3.60;91.40;;;;;;5033031;28;20025;-70
2021/04/11 03:34:50;;;;;;;3.60;2.20;;;3.60;91.40;;;;;;5031946;28;20033;-71
2021/04/11 03:37:18;;;;;;;2.92;2.47;;;3.60;91.50;;;;;;5033293;28;20547;-70
2021/04/11 03:39:44;;;;;;;2.88;2.10;;;3.60;91.50;;;;;;5037278;28;20083;-71
2021/04/11 03:42:14;;;;;;;2.17;1.75;;;3.60;91.50;;;;;;5038068;28;20021;-70
2021/04/11 03:44:41;;;;;;;2.28;1.70;;;3.60;91.50;;;;;;5039714;28;20026;-70
2021/04/11 03:47:28;;;;;;;2.47;1.80;;;3.60;91.50;;;;;;5039603;28;20071;-69
2021/04/11 03:50:07;;;;;;;2.08;1.75;;;3.60;91.50;;;;;;5039775;28;20034;-70
2021/04/11 03:52:53;;;;;;;1.92;1.70;;;3.60;91.50;;;;;;5039671;28;20046;-70
2021/04/11 03:55:24;;;;;;;1.77;1.30;;;3.60;91.50;;;;;;5039686;28;20032;-69
2021/04/11 03:57:56;;;;;;;2.58;2.00;;;3.70;91.50;;;;;;5039065;28;20024;-70
2021/04/11 04:00:36;;;;;;;1.85;1.70;;;3.70;91.50;;;;;;5039622;28;20060;-70
2021/04/11 04:03:11;;;;;;;1.60;1.50;;;3.70;91.50;;;;;;5039630;28;20021;-70
2021/04/11 04:05:39;;;;;;;2.92;2.00;;;3.70;91.40;;;;;;5039369;28;20029;-70
2021/04/11 04:08:06;;;;;;;2.13;1.85;;;3.70;91.40;;;;;;5039543;28;20025;-69
2021/04/11 04:10:39;;;;;;;3.00;2.28;;;3.80;91.50;;;;;;5039032;28;20025;-70
2021/04/11 04:13:27;;;;;;;2.33;1.73;;;3.70;91.40;;;;;;5039369;28;20117;-69
2021/04/11 04:16:26;;;;;;;2.78;1.80;;;3.80;91.50;;;;;;5039440;28;20018;-69
2021/04/11 04:19:15;;;;;;;2.22;1.67;;;3.80;91.40;;;;;;5039614;28;20033;-70
2021/04/11 04:22:23;;;;;;;2.22;1.73;;;3.80;91.40;;;;;;5039394;28;20105;-69
2021/04/11 04:25:18;;;;;;;1.70;1.52;;;3.90;91.30;;;;;;5039050;28;20049;-70
2021/04/11 04:27:52;;;;;;;1.65;1.45;;;3.80;91.30;;;;;;5039531;28;20025;-69
2021/04/11 04:30:23;;;;;;;1.27;1.17;;;3.90;91.30;;;;;;5039209;28;20029;-69
2021/04/11 04:33:16;;;;;;;3.92;1.90;;;3.90;91.30;;;;;;5039106;28;20032;-69
2021/04/11 04:35:54;;;;;;;2.47;2.03;;;3.90;91.30;;;;;;5039419;28;20036;-70
2021/04/11 04:38:44;;;;;;;2.05;1.73;;;3.90;91.30;;;;;;5037955;28;20014;-70
2021/04/11 04:41:18;;;;;;;2.13;1.83;;;3.90;91.30;;;;;;5038767;28;20397;-70
2021/04/11 04:43:52;;;;;;;2.13;1.70;;;3.90;91.30;;;;;;5039271;28;20029;-69
2021/04/11 04:46:39;;;;;;;2.00;1.70;;;3.90;91.40;;;;;;5037872;28;20390;-69
2021/04/11 04:49:32;;;;;;;1.35;1.20;;;3.90;91.40;;;;;;5039162;28;20488;-69
2021/04/11 04:52:05;;;;;;;2.25;1.95;;;4.00;91.30;;;;;;5034358;28;20052;-70
2021/04/11 04:54:47;;;;;;;1.75;1.52;;;4.00;91.30;;;;;;5035581;28;20042;-69
2021/04/11 04:57:19;;;;;;;1.70;1.60;;;4.00;91.30;;;;;;5036067;28;20033;-70
2021/04/11 05:00:08;;;;;;;1.88;1.60;;;4.00;91.40;;;;;;5035964;28;20093;-69
2021/04/11 05:02:46;;;;;;;1.88;1.35;;;4.00;91.30;;;;;;5035731;28;20018;-70
2021/04/11 05:05:14;;;;;;;1.73;1.50;;;4.00;91.30;;;;;;5036068;28;20021;-69
2021/04/11 05:07:49;;;;;;;2.03;1.80;;;4.10;91.30;;;;;;5035692;28;20028;-70
2021/04/11 05:10:26;;;;;;;3.70;2.60;;;4.00;91.30;;;;;;5035234;28;20018;-70
2021/04/11 05:13:16;;;;;;;3.20;2.30;;;4.00;91.30;;;;;;5035631;28;20037;-69
2021/04/11 05:15:44;;;;;;;2.55;2.00;;;4.00;91.30;;;;;;5026647;28;20033;-68
2021/04/11 05:18:19;;;;;;;1.90;1.48;;;4.10;91.40;;;;;;5035429;28;20033;-69
2021/04/11 05:20:49;;;;;;;1.70;1.50;;;4.10;91.30;;;;;;5035995;28;20052;-69
2021/04/11 05:23:27;;;;;;;1.48;1.30;;;4.10;91.30;;;;;;5034740;28;20470;-70
2021/04/11 05:26:21;;;;;;;2.38;2.03;;;4.10;91.30;;;;;;5035530;28;20108;-70
2021/04/11 05:28:57;;;;;;;1.83;1.73;;;4.10;91.20;;;;;;5035346;28;20021;-69
2021/04/11 05:31:28;;;;;;;1.42;1.33;;;4.10;91.30;;;;;;5035278;28;20030;-69
2021/04/11 05:33:55;;;;;;;2.47;1.85;;;4.20;91.30;;;;;;5035410;28;20073;-69
2021/04/11 05:36:39;;;;;;;2.42;1.70;;;4.20;91.30;;;;;;5035085;28;20429;-70
2021/04/11 05:39:31;;;;;;;1.77;1.67;;;4.20;91.20;;;;;;5034868;28;20508;-69
2021/04/11 05:42:16;;;;;;;1.90;1.65;;;4.20;91.20;;;;;;5035219;28;20497;-69
2021/04/11 05:44:46;;;;;;;1.92;1.35;;;4.20;91.20;;;;;;5035101;28;20505;-69
2021/04/11 05:47:19;;;;;;;1.55;1.40;;;4.20;91.20;;;;;;5034869;28;20033;-69
2021/04/11 05:49:56;;;;;;;2.67;1.42;;;4.20;91.20;;;;;;5034902;28;20055;-69
2021/04/11 05:52:33;;;;;;;1.42;1.33;;;4.30;91.20;;;;;;5034163;28;20053;-69
2021/04/11 05:55:02;;;;;;;1.52;1.20;;;4.30;91.10;;;;;;5034889;28;20498;-70
2021/04/11 05:57:35;;;;;;;1.67;1.33;;;4.30;91.00;;;;;;5034427;28;20026;-70
2021/04/11 06:00:18;;;;;;;1.70;1.60;;;4.40;91.00;;;;;;5034715;28;20069;-69
2021/04/11 06:02:53;;;;;;;3.60;2.00;;;4.40;91.00;;;;;;5034509;28;20108;-70
2021/04/11 06:05:28;;;;;;;2.65;2.40;;;4.40;91.00;;;;;;5034676;28;20145;-69
2021/04/11 06:08:32;;;;;;;3.05;2.13;;;4.30;91.00;;;;;;5034157;28;20049;-71
2021/04/11 06:11:24;;;;;;;2.08;1.55;;;4.20;91.10;;;;;;5034309;28;20032;-71
2021/04/11 06:14:02;;;;;;;2.13;1.90;;;4.20;91.10;;;;;;5034513;28;20047;-70
2021/04/11 06:16:30;;;;;;;2.45;1.90;;;4.20;91.10;;;;;;5034505;28;20022;-72
2021/04/11 06:18:56;;;;;;;2.92;2.28;;;4.20;91.10;;;;;;5034420;28;20029;-72
2021/04/11 06:21:48;;;;;;;1.88;1.55;;;4.20;91.10;;;;;;5034045;28;20026;-71
2021/04/11 06:24:32;;;;;;;2.13;1.63;;;4.20;91.10;;;;;;5034127;28;20108;-70
2021/04/11 06:27:12;;;;;;;2.15;1.90;;;4.30;91.00;;;;;;5034236;28;20022;-70
2021/04/11 06:30:03;;;;;;;1.73;1.52;;;4.30;91.00;;;;;;5034457;28;20052;-70
2021/04/11 06:32:37;;;;;;;1.23;1.13;;;4.40;90.90;;;;;;5033814;28;20553;-70
2021/04/11 06:35:07;;;;;;;1.38;1.15;;;4.40;90.90;;;;;;5034147;28;20597;-70
2021/04/11 06:37:35;;;;;;;2.20;1.92;;;4.50;90.90;;;;;;5033602;28;20021;-70
2021/04/11 06:40:23;;;;;;;2.53;2.17;;;4.50;90.70;;;;;;5032708;28;20053;-71
2021/04/11 06:43:10;;;;;;;2.28;1.60;;;4.50;90.80;;;;;;5033861;28;20021;-69
2021/04/11 06:45:51;;;;;;;2.50;1.75;;;4.50;90.80;;;;;;5033776;28;20034;-70
2021/04/11 06:48:28;;;;;;;1.85;1.65;;;4.50;90.80;;;;;;5033098;28;20432;-70
2021/04/11 06:51:31;;;;;;;1.67;1.35;;;4.50;90.80;;;;;;5033350;28;20063;-69
2021/04/11 06:54:43;;;;;;;1.30;1.20;;;4.50;90.70;;;;;;5033482;28;20103;-70
2021/04/11 06:57:27;;;;;;;1.45;1.30;;;4.60;90.60;;;;;;5034010;28;20025;-69
2021/04/11 07:00:12;;;;;;;1.20;1.10;;;4.60;90.60;;;;;;5033666;28;20022;-71
2021/04/11 07:03:17;;;;;;;1.02;1.02;;;4.80;90.40;;;;;;5033505;28;20039;-70
2021/04/11 07:06:26;;;;;;;0.80;0.80;;;4.80;90.40;;;;;;5033311;28;20111;-70
2021/04/11 07:09:15;;;;;;;1.48;1.33;;;5.00;90.30;;;;;;5033899;28;20385;-70
2021/04/11 07:12:14;;;;;;;1.65;1.52;;;5.00;90.20;;;;;;5033384;28;20024;-70
2021/04/11 07:15:02;;;;;;;1.40;1.30;;;5.00;90.30;;;;;;5032918;28;20564;-69
2021/04/11 07:17:50;;;;;;;2.10;1.60;;;4.90;90.30;;;;;;5033272;28;20071;-70
2021/04/11 07:20:49;;;;;;;1.40;1.27;;;5.00;90.30;;;;;;5032816;28;20025;-69
2021/04/11 07:23:22;;;;;;;1.17;1.08;;;5.10;90.30;;;;;;5033154;28;20025;-69
2021/04/11 07:26:10;;;;;;;1.10;1.10;;;5.10;90.20;;;;;;5033203;28;20032;-69
2021/04/11 07:29:16;;;;;;;1.23;1.13;;;5.20;90.10;;;;;;5033159;28;20035;-69
2021/04/11 07:32:19;;;;;;;1.25;1.10;;;5.20;90.10;;;;;;5033246;28;20113;-70
2021/04/11 07:35:18;;;;;;;1.10;1.00;;;5.30;90.00;;;;;;5032696;28;20036;-70
2021/04/11 07:38:20;;;;;;;1.08;1.00;;;5.30;90.00;;;;;;5033151;28;20036;-70
2021/04/11 07:40:54;;;;;;;2.08;1.70;;;5.30;90.00;;;;;;5031856;28;20025;-71
2021/04/11 07:43:49;;;;;;;2.65;1.65;;;5.10;90.00;;;;;;5033015;28;20032;-71
2021/04/11 07:46:31;;;;;;;1.77;1.48;;;5.00;90.10;;;;;;5033111;28;20025;-69
2021/04/11 07:49:34;;;;;;;2.92;1.83;;;4.90;90.30;;;;;;5032613;28;20018;-70
2021/04/11 07:52:11;;;;;;;2.05;1.65;;;5.00;90.30;;;;;;5033009;28;20041;-69
2021/04/11 07:54:52;;;;;;;2.28;1.58;;;5.00;90.30;;;;;;5032885;28;20037;-69
2021/04/11 07:57:38;;;;;;;2.75;2.10;;;5.00;90.20;;;;;;5032942;28;20025;-70
2021/04/11 08:00:33;;;;;;;2.67;2.03;;;5.00;90.10;;;;;;5002301;28;20045;-69
2021/04/11 08:03:18;;;;;;;2.53;1.92;;;5.00;90.10;;;;;;5032559;28;20049;-70
2021/04/11 08:06:14;;;;;;;3.38;2.65;;;5.00;90.20;;;;;;5032967;28;20048;-70
2021/04/11 08:09:28;;;;;;;5.10;3.00;;;4.90;90.20;;;;;;5032889;28;20428;-72
2021/04/11 08:12:13;;;;;;;4.30;2.22;;;4.90;90.30;;;;;;5002414;28;20085;-71
2021/04/11 08:15:00;;;;;;;2.97;2.00;;;4.90;90.30;;;;;;5033011;28;20533;-71
2021/04/11 08:17:39;;;;;;;2.88;2.30;;;4.90;90.20;;;;;;5032373;28;20022;-71
2021/04/11 08:20:24;;;;;;;2.83;2.00;;;4.90;90.30;;;;;;5032875;28;20406;-71
2021/04/11 08:23:30;;;;;;;3.38;2.28;;;4.90;90.30;;;;;;5032768;28;20057;-71
2021/04/11 08:26:22;;;;;;;2.05;1.63;;;5.00;90.30;;;;;;5005025;28;20443;-71
2021/04/11 08:29:15;;;;;;;2.55;1.95;;;5.10;90.20;;;;;;5036424;28;20022;-71
2021/04/11 08:32:08;;;;;;;2.20;1.65;;;5.10;90.00;;;;;;5035899;28;20025;-71
2021/04/11 08:34:54;;;;;;;3.17;2.28;;;5.20;90.00;;;;;;5036366;28;20041;-70
2021/04/11 08:37:29;;;;;;;2.45;1.70;;;5.20;89.90;;;;;;5036366;28;20029;-70
2021/04/11 08:40:32;;;;;;;1.70;1.35;;;5.20;90.00;;;;;;5035987;28;20064;-70
2021/04/11 08:43:16;;;;;;;1.52;1.30;;;5.20;90.00;;;;;;5036172;28;20116;-70
2021/04/11 08:45:59;;;;;;;1.38;1.25;;;5.40;89.70;;;;;;5036130;28;20018;-70
2021/04/11 08:48:44;;;;;;;1.67;1.20;;;5.50;89.40;;;;;;5036221;28;20033;-70
2021/04/11 08:51:17;;;;;;;1.27;1.17;;;5.70;89.30;;;;;;5035858;28;20025;-70
2021/04/11 08:53:55;;;;;;;1.80;1.70;;;5.80;89.00;;;;;;5035894;28;20168;-70
2021/04/11 08:56:38;;;;;;;2.20;1.80;;;5.80;88.80;;;;;;5035932;28;20020;-71
2021/04/11 08:59:23;;;;;;;1.30;1.20;;;5.90;88.90;;;;;;5036077;28;20493;-70
2021/04/11 09:02:26;;;;;;;2.13;1.70;;;5.90;89.00;;;;;;5035332;28;20072;-71
2021/04/11 09:05:06;;;;;;;2.17;1.67;;;6.00;88.70;;;;;;5036014;28;20034;-71
2021/04/11 09:07:56;;;;;;;1.85;1.60;;;5.90;89.00;;;;;;5035733;28;20030;-71
2021/04/11 09:10:59;;;;;;;1.63;1.52;;;5.90;89.00;;;;;;5035641;28;20034;-71
2021/04/11 09:13:50;;;;;;;2.10;1.60;;;5.80;88.90;;;;;;5035666;28;20038;-71
2021/04/11 09:16:25;;;;;;;1.60;1.42;;;5.80;89.20;;;;;;5035122;28;20079;-70
2021/04/11 09:19:13;;;;;;;1.35;1.10;;;5.80;89.40;;;;;;5035606;28;20045;-71
2021/04/11 09:21:53;;;;;;;1.35;1.25;;;6.00;89.10;;;;;;5035555;28;20025;-71
2021/04/11 09:24:24;;;;;;;1.10;1.10;;;6.20;88.40;;;;;;5033924;28;20022;-71
2021/04/11 09:27:05;;;;;;;1.23;1.13;;;6.40;88.00;;;;;;5035407;28;20025;-71
2021/04/11 09:29:52;;;;;;;1.40;1.20;;;6.40;87.90;;;;;;5035014;28;20064;-71
2021/04/11 09:32:59;;;;;;;1.75;1.30;;;6.50;88.10;;;;;;5035097;28;20049;-72
2021/04/11 09:35:33;;;;;;;1.52;1.30;;;6.80;87.50;;;;;;5035316;28;20017;-71
2021/04/11 09:38:06;;;;;;;1.58;1.48;;;6.80;87.40;;;;;;5034437;28;20032;-71
2021/04/11 09:40:55;;;;;;;1.40;1.00;;;6.90;87.60;;;;;;5035271;28;20022;-71
2021/04/11 09:43:36;;;;;;;1.58;1.13;;;7.00;87.30;;;;;;5035062;28;20029;-71
2021/04/11 09:46:13;;;;;;;1.33;1.20;;;7.00;87.40;;;;;;5034593;28;20053;-72
2021/04/11 09:48:56;;;;;;;1.25;1.10;;;6.90;87.40;;;;;;5035051;28;20474;-72
2021/04/11 09:51:47;;;;;;;1.10;1.00;;;6.90;87.40;;;;;;5034923;28;20045;-70
2021/04/11 09:54:21;;;;;;;1.25;1.15;;;6.90;87.50;;;;;;5034751;28;20037;-72
2021/04/11 09:57:17;;;;;;;2.63;1.50;;;6.80;87.70;;;;;;5034779;28;20033;-70
2021/04/11 09:59:59;;;;;;;1.08;1.00;;;6.90;87.70;;;;;;5034431;28;20057;-71
2021/04/11 10:02:30;;;;;;;1.55;1.42;;;6.80;87.40;;;;;;5034728;28;20037;-70
2021/04/11 10:05:14;;;;;;;1.38;1.13;;;6.70;87.70;;;;;;5034635;28;20049;-71
2021/04/11 10:08:05;;;;;;;1.33;1.17;;;6.60;87.80;;;;;;5034643;28;20038;-71
2021/04/11 10:10:59;;;;;;;1.15;0.93;;;6.70;87.60;;;;;;5034623;28;20022;-70
2021/04/11 10:13:54;;;;;;;1.30;1.20;;;6.60;87.90;;;;;;5034059;28;20478;-71
2021/04/11 10:16:23;;;;;;;1.85;1.40;;;6.70;87.20;;;;;;5034221;28;20021;-71
2021/04/11 10:19:17;;;;;;;1.30;1.20;;;6.80;87.30;;;;;;5034334;28;20037;-71
2021/04/11 10:22:08;;;;;;;1.30;1.20;;;6.90;86.80;;;;;;5034407;28;20040;-71
2021/04/11 10:25:04;;;;;;;1.52;1.10;;;6.90;87.10;;;;;;5031506;28;20029;-71
2021/04/11 10:27:49;;;;;;;0.90;0.90;;;6.90;86.90;;;;;;5011287;28;20367;-71
2021/04/11 10:30:17;;;;;;;2.33;1.60;;;6.80;87.20;;;;;;5011874;28;20010;-72
2021/04/11 10:33:00;;;;;;;2.55;1.48;;;6.30;87.70;;;;;;5011250;28;20083;-72
2021/04/11 10:35:32;;;;;;;1.15;1.05;;;5.80;88.90;;;;;;5011554;28;20033;-70
2021/04/11 10:38:06;;;;;;;1.23;1.13;;;5.70;89.90;;;;;;5011377;28;20064;-71
2021/04/11 10:41:04;;;;;;;1.38;1.25;;;5.70;89.60;;;;;;5011600;28;20026;-71
2021/04/11 10:43:48;;;;;;;0.93;0.93;;;5.90;89.30;;;;;;5011036;28;20033;-71
2021/04/11 10:46:24;;;;;;;1.00;1.00;;;6.00;88.70;;;;;;5011484;28;20064;-71
2021/04/11 10:49:24;;;;;;;1.30;1.20;;;6.10;88.60;;;;;;5010385;28;20045;-71
2021/04/11 10:52:24;;;;;;;1.33;1.00;;;6.40;88.40;;;;;;5010685;28;20054;-71
2021/04/11 10:55:14;;;;;;;0.85;0.70;;;6.50;87.70;;;;;;5011273;28;20391;-71
2021/04/11 10:58:18;;;;;;;1.63;0.95;;;6.70;87.70;;;;;;5010702;28;20030;-71
2021/04/11 11:01:10;;;;;;;0.88;0.88;;;6.70;87.50;;;;;;5010944;28;20040;-71
2021/04/11 11:04:10;;;;;;;1.25;1.17;;;6.70;87.60;;;;;;5011057;28;20041;-71
2021/04/11 11:07:02;;;;;;;0.80;0.80;;;6.80;87.40;;;;;;5011031;28;20026;-71
2021/04/11 11:09:43;;;;;;;1.67;0.95;;;6.90;87.40;;;;;;5011143;28;20089;-71
2021/04/11 11:12:50;;;;;;;1.00;0.88;;;6.90;87.40;;;;;;5010812;28;20109;-71
2021/04/11 11:15:19;;;;;;;1.30;1.20;;;6.80;87.30;;;;;;5010877;28;20069;-71
2021/04/11 11:18:12;;;;;;;1.45;1.35;;;6.70;87.40;;;;;;5010937;28;20501;-71
2021/04/11 11:21:03;;;;;;;1.10;1.00;;;6.70;87.60;;;;;;5010864;28;20419;-71
2021/04/11 11:23:44;;;;;;;1.50;1.10;;;6.80;87.40;;;;;;5010809;28;20144;-71
2021/04/11 11:26:41;;;;;;;1.63;1.30;;;7.00;87.20;;;;;;5023832;28;20032;-71
2021/04/11 11:29:10;;;;;;;1.38;0.90;;;7.30;86.90;;;;;;5031768;28;20108;-72
2021/04/11 11:31:38;;;;;;;1.35;1.00;;;7.50;86.20;;;;;;5031423;28;20068;-73
2021/04/11 11:34:23;;;;;;;1.27;1.17;;;7.50;85.80;;;;;;5032662;28;20108;-71
2021/04/11 11:37:12;;;;;;;1.85;1.10;;;7.30;86.10;;;;;;5031751;28;20024;-70
2021/04/11 11:40:02;;;;;;;1.00;0.87;;;7.30;86.40;;;;;;5033344;28;20030;-70
2021/04/11 11:42:34;;;;;;;2.10;0.85;;;7.30;86.30;;;;;;5004001;28;20049;-70
2021/04/11 11:45:08;;;;;;;1.20;1.10;;;7.50;86.00;;;;;;5033172;28;20032;-71
2021/04/11 11:48:01;;;;;;;0.60;0.60;;;7.60;85.70;;;;;;5033032;28;20033;-70
2021/04/11 11:50:33;;;;;;;1.65;0.93;;;7.80;85.40;;;;;;5032919;28;20091;-71
2021/04/11 11:53:22;;;;;;;1.85;1.73;;;8.00;84.90;;;;;;5032605;28;20053;-71
2021/04/11 11:56:24;;;;;;;1.17;1.05;;;7.90;84.90;;;;;;5032619;28;20052;-71
2021/04/11 11:59:17;;;;;;;2.03;1.00;;;8.00;85.10;;;;;;5032931;28;20025;-71
2021/04/11 12:01:53;;;;;;;2.22;1.10;;;8.10;84.90;;;;;;5005937;28;20120;-72
2021/04/11 12:04:42;;;;;;;3.17;1.27;;;8.00;84.50;;;;;;5037093;28;20459;-72
2021/04/11 12:07:30;;;;;;;2.65;1.80;;;7.80;84.40;;;;;;5036966;28;20033;-70
2021/04/11 12:10:07;;;;;;;2.17;1.73;;;7.70;85.10;;;;;;5036317;28;20064;-71
2021/04/11 12:12:39;;;;;;;1.63;1.40;;;7.60;85.30;;;;;;5036788;28;20048;-71
2021/04/11 12:15:39;;;;;;;1.42;1.30;;;7.60;85.00;;;;;;5036809;28;20033;-71
2021/04/11 12:18:10;;;;;;;2.03;1.60;;;7.50;85.10;;;;;;5036646;28;20030;-71
2021/04/11 12:20:38;;;;;;;1.55;1.45;;;7.40;85.20;;;;;;5036764;28;20053;-71
2021/04/11 12:23:07;;;;;;;1.98;1.40;;;7.50;85.30;;;;;;5036803;28;20036;-71
2021/04/11 12:25:35;;;;;;;2.47;1.70;;;7.50;85.00;;;;;;5035952;28;20029;-71
2021/04/11 12:28:24;;;;;;;0.95;0.85;;;7.40;84.80;;;;;;5036489;28;20025;-70
2021/04/11 12:30:51;;;;;;;2.35;1.42;;;7.20;85.40;;;;;;5036648;28;20531;-71
2021/04/11 12:33:31;;;;;;;1.48;1.00;;;6.90;85.80;;;;;;5036311;28;20096;-71
2021/04/11 12:36:20;;;;;;;1.40;1.00;;;6.80;86.00;;;;;;5036341;28;20031;-71
2021/04/11 12:38:48;;;;;;;1.17;1.08;;;6.80;85.90;;;;;;5035804;28;20654;-71
2021/04/11 12:41:25;;;;;;;1.50;1.17;;;7.00;85.70;;;;;;5036186;28;20025;-71
2021/04/11 12:44:10;;;;;;;0.90;0.90;;;7.40;85.10;;;;;;5036172;28;20057;-71
2021/04/11 12:47:06;;;;;;;0.80;0.80;;;7.70;84.10;;;;;;5036125;28;20021;-71
2021/04/11 12:50:06;;;;;;;1.40;1.10;;;7.80;83.20;;;;;;5036130;28;20022;-71
2021/04/11 12:53:08;;;;;;;1.33;1.23;;;7.60;83.20;;;;;;5035491;28;20056;-71
2021/04/11 12:55:50;;;;;;;0.80;0.80;;;7.40;83.70;;;;;;4974943;28;20448;-71
2021/04/11 12:58:27;;;;;;;1.17;0.90;;;7.30;83.60;;;;;;4975225;28;20070;-71
2021/04/11 13:00:59;;;;;;;2.15;1.00;;;7.30;83.50;;;;;;4974918;28;20373;-71
2021/04/11 13:03:33;;;;;;;1.10;0.95;;;7.40;83.70;;;;;;4975126;28;20034;-71
2021/04/11 13:06:12;;;;;;;1.40;0.90;;;7.70;83.10;;;;;;4958711;28;20031;-70
2021/04/11 13:08:45;;;;;;;0.95;0.95;;;8.00;82.70;;;;;;4974468;28;20197;-71
2021/04/11 13:11:19;;;;;;;1.35;1.30;;;8.20;81.60;;;;;;4974236;28;20507;-71
2021/04/11 13:13:56;;;;;;;1.77;1.65;;;8.30;82.10;;;;;;4974472;28;20050;-71
2021/04/11 13:16:36;;;;;;;1.55;0.90;;;8.80;81.50;;;;;;4974781;28;20030;-71
2021/04/11 13:19:10;;;;;;;0.65;0.65;;;9.40;80.50;;;;;;4974614;28;20045;-71
2021/04/11 13:21:39;;;;;;;0.90;0.90;;;9.60;79.80;;;;;;4974534;28;20077;-71
2021/04/11 13:24:25;;;;;;;1.15;0.65;;;9.30;79.80;;;;;;4974514;28;20059;-71
2021/04/11 13:27:08;;;;;;;2.40;1.00;;;9.10;80.80;;;;;;4974647;28;20455;-70
2021/04/11 13:29:59;;;;;;;1.50;0.73;;;9.10;80.70;;;;;;4974689;28;20033;-71
2021/04/11 13:32:31;;;;;;;0.85;0.70;;;9.50;80.90;;;;;;5007314;28;20040;-71
2021/04/11 13:35:22;;;;;;;0.68;0.68;;;9.80;79.70;;;;;;5035200;28;20051;-71
2021/04/11 13:38:02;;;;;;;0.82;0.82;;;9.50;79.50;;;;;;5034817;28;20048;-71
2021/04/11 13:40:35;;;;;;;4.55;1.90;;;9.10;80.50;;;;;;5035211;28;20030;-71
2021/04/11 13:43:19;;;;;;;1.80;0.90;;;9.00;80.70;;;;;;5035374;28;20466;-71
2021/04/11 13:45:51;;;;;;;1.55;0.80;;;8.90;80.30;;;;;;5035317;28;20127;-71
2021/04/11 13:48:35;;;;;;;0.73;0.70;;;8.60;81.00;;;;;;5034977;28;20029;-72
2021/04/11 13:51:12;;;;;;;0.80;0.80;;;8.40;81.10;;;;;;5034424;28;20025;-70
2021/04/11 13:53:57;;;;;;;0.95;0.90;;;8.20;80.70;;;;;;5034923;28;20037;-71
2021/04/11 13:57:10;;;;;;;0.98;0.80;;;8.00;81.00;;;;;;5034887;28;20505;-71
2021/04/11 14:00:13;;;;;;;0.70;0.70;;;7.90;81.10;;;;;;4973924;28;20511;-72
2021/04/11 14:02:45;;;;;;;1.75;0.98;;;7.80;81.30;;;;;;4957741;28;20547;-71